This is the latest recevied weather packets stored in our database for station/object KDEQ. If no packets are shown the sender has not sent any weather packets the latest 10 day(s).
| Time | Temp. | Humidity | Pressure | Rain* | Wind** | Luminosity | Snow |
|---|---|---|---|---|---|---|---|
| 1777697011 | 13.89° C | 100% | 1017.3 hPa | - | - | - | - |
| 1777696416 | 13.89° C | 100% | 1017.3 hPa | - | - | - | - |
| 1777695812 | 13.89° C | 100% | 1017.3 hPa | - | - | - | - |
| 1777695215 | 13.89° C | 100% | 1017.3 hPa | - | - | - | - |
| 1777694737 | 13.89° C | 100% | 1017.3 hPa | - | - | - | - |
| 1777694008 | 15° C | 93% | 1017.3 hPa | - | - | - | - |
| 1777693410 | 15° C | 93% | 1017.3 hPa | - | - | - | - |
| 1777692815 | 15° C | 93% | 1017.3 hPa | - | - | - | - |
| 1777692212 | 15° C | 93% | 1017.3 hPa | - | - | - | - |
| 1777691616 | 15° C | 93% | 1017.3 hPa | - | - | - | - |
| 1777691012 | 15° C | 93% | 1017.3 hPa | - | - | - | - |
| 1777690414 | 16.67° C | 77% | 1016.3 hPa | - | - | - | - |
| 1777689809 | 16.67° C | 77% | 1016.3 hPa | - | - | - | - |
| 1777689212 | 16.67° C | 77% | 1016.3 hPa | - | - | - | - |
| 1777688611 | 16.67° C | 77% | 1016.3 hPa | - | - | - | - |
| 1777673611 | 20° C | 49% | 1013.2 hPa | - | - | - | - |
| 1777670615 | 20° C | 49% | 1013.5 hPa | - | - | - | - |
| 1777670009 | 20° C | 49% | 1013.5 hPa | - | - | - | - |
| 1777668217 | 20.56° C | 49% | 1014.2 hPa | - | - | - | - |
| 1777664013 | 20° C | 56% | 1015.9 hPa | - | - | - | - |
| 1777663417 | 20° C | 56% | 1015.9 hPa | - | - | - | - |
| 1777659812 | 17.78° C | 59% | 1016.9 hPa | - | - | - | - |
| 1777659212 | 17.78° C | 59% | 1016.9 hPa | - | - | - | - |
| 1777657414 | 16.67° C | 63% | 1017.6 hPa | - | - | - | - |
| 1777656813 | 16.67° C | 63% | 1017.6 hPa | - | - | - | - |
* Rain since midnight (hover to see other rain measurements)
** Current wind speed in m/s (hover to see current wind gust speed)